createdAt,value
2022-10-19T00:01:23.714Z,102801.97
2022-10-19T00:03:54.680Z,102786.69
2022-10-19T00:06:26.406Z,102796.59
2022-10-19T00:08:56.718Z,102790.31
2022-10-19T00:11:25.998Z,102794.56
2022-10-19T00:13:56.553Z,102665.72
2022-10-19T00:16:28.817Z,102773.88
2022-10-19T00:18:58.839Z,102747.94
2022-10-19T00:21:28.271Z,102773.31
2022-10-19T00:23:56.679Z,102775.41
2022-10-19T00:26:25.944Z,102763.97
2022-10-19T00:28:55.710Z,102766.81
2022-10-19T00:31:26.506Z,102776.63
2022-10-19T00:33:54.793Z,102771.38
2022-10-19T00:36:26.508Z,102772.38
2022-10-19T00:38:55.642Z,102773.25
2022-10-19T00:41:28.898Z,102769.81
2022-10-19T00:44:00.681Z,102776.97
2022-10-19T00:46:32.970Z,102765.47
2022-10-19T00:49:07.114Z,102626.22
2022-10-19T00:51:42.991Z,102769.06
2022-10-19T00:54:11.973Z,102777.16
2022-10-19T00:56:44.323Z,102764.63
2022-10-19T00:59:14.700Z,102777.13
2022-10-19T01:01:45.716Z,102777.06
2022-10-19T01:04:14.788Z,102779.75
2022-10-19T01:06:43.566Z,102777.06
2022-10-19T01:09:12.025Z,102768.97
2022-10-19T01:11:49.057Z,102773.53
2022-10-19T01:14:36.044Z,102768.19
2022-10-19T01:17:12.804Z,102762.84
2022-10-19T01:20:33.261Z,102775.25
2022-10-19T01:23:46.033Z,102765.50
2022-10-19T01:26:33.876Z,102759.25
2022-10-19T01:29:13.170Z,102761.94
2022-10-19T01:31:48.565Z,102746.94
2022-10-19T01:34:22.962Z,102760.00
2022-10-19T01:36:59.197Z,102756.34
2022-10-19T01:39:38.533Z,102756.34
2022-10-19T01:42:15.043Z,102760.84
2022-10-19T01:44:48.910Z,102759.94
2022-10-19T01:47:23.332Z,102754.53
2022-10-19T01:49:57.161Z,102752.75
2022-10-19T01:52:27.914Z,102743.88
2022-10-19T01:54:58.827Z,102752.69
2022-10-19T01:57:29.576Z,102742.88
2022-10-19T01:59:59.228Z,102736.66
2022-10-19T02:02:30.051Z,102742.97
2022-10-19T02:04:59.153Z,102731.41
2022-10-19T02:07:28.791Z,102737.63
2022-10-19T02:09:57.993Z,102705.50
2022-10-19T02:12:27.747Z,102727.00
2022-10-19T02:15:00.620Z,102751.88
2022-10-19T02:17:34.699Z,102727.00
2022-10-19T02:20:04.739Z,102719.84
2022-10-19T02:22:33.565Z,102700.19
2022-10-19T02:25:03.431Z,102718.91
2022-10-19T02:27:31.830Z,102722.59
2022-10-19T02:30:00.222Z,102719.00
2022-10-19T02:32:29.986Z,102707.44
2022-10-19T02:34:58.316Z,102710.06
2022-10-19T02:37:26.696Z,102709.06
2022-10-19T02:39:55.154Z,102714.19
2022-10-19T02:42:34.217Z,102726.28
2022-10-19T02:45:11.012Z,102720.47
2022-10-19T02:47:46.202Z,102716.28
2022-10-19T02:50:15.361Z,102721.25
2022-10-19T02:52:43.696Z,102713.34
2022-10-19T02:55:12.305Z,102710.94
2022-10-19T02:57:40.639Z,102709.22
2022-10-19T03:00:11.303Z,102705.56
2022-10-19T03:02:40.949Z,102702.88
2022-10-19T03:05:12.014Z,102698.56
2022-10-19T03:07:41.460Z,102690.50
2022-10-19T03:10:10.924Z,102691.41
2022-10-19T03:12:39.284Z,102697.69
2022-10-19T03:15:09.181Z,102676.41
2022-10-19T03:17:37.502Z,102679.09
2022-10-19T03:20:09.292Z,102680.00
2022-10-19T03:22:37.611Z,102676.47
2022-10-19T03:25:06.960Z,102676.53
2022-10-19T03:27:35.524Z,102682.75
2022-10-19T03:30:04.631Z,102674.75
2022-10-19T03:32:32.896Z,102683.66
2022-10-19T03:35:03.503Z,102676.50
2022-10-19T03:37:33.422Z,102681.75
2022-10-19T03:40:02.128Z,102675.59
2022-10-19T03:42:30.587Z,102676.41
2022-10-19T03:44:58.854Z,102673.69
2022-10-19T03:47:27.150Z,102679.97
2022-10-19T03:49:55.475Z,102674.66
2022-10-19T03:52:23.738Z,102679.16
2022-10-19T03:54:53.398Z,102671.91
2022-10-19T03:57:21.717Z,102674.56
2022-10-19T03:59:50.538Z,102682.22
2022-10-19T04:02:18.900Z,102675.97
2022-10-19T04:04:47.168Z,102676.56
2022-10-19T04:07:15.535Z,102650.59
2022-10-19T04:09:43.794Z,102673.94
2022-10-19T04:12:13.512Z,102658.81
2022-10-19T04:14:56.219Z,102656.22
2022-10-19T04:17:26.805Z,102630.31
2022-10-19T04:19:55.107Z,102653.38
2022-10-19T04:22:23.610Z,102653.47
2022-10-19T04:24:51.880Z,102660.41
2022-10-19T04:27:21.513Z,102666.34
2022-10-19T04:29:49.820Z,102675.69
2022-10-19T04:32:18.176Z,102669.94
2022-10-19T04:34:46.457Z,102674.13
2022-10-19T04:37:14.739Z,102683.00
2022-10-19T04:39:44.508Z,102675.06
2022-10-19T04:42:12.814Z,102685.00
2022-10-19T04:44:42.434Z,102682.38
2022-10-19T04:47:11.038Z,102684.22
2022-10-19T04:49:39.264Z,102688.31
2022-10-19T04:52:07.865Z,102683.66
2022-10-19T04:54:36.120Z,102688.22
2022-10-19T04:57:05.159Z,102695.19
2022-10-19T04:59:33.682Z,102696.16
2022-10-19T05:02:03.515Z,102698.03
2022-10-19T05:04:31.861Z,102691.03
2022-10-19T05:07:00.096Z,102691.38
2022-10-19T05:09:28.481Z,102678.03
2022-10-19T05:11:56.752Z,102677.25
2022-10-19T05:14:25.508Z,102677.97
2022-10-19T05:16:53.865Z,102684.38
2022-10-19T05:19:23.513Z,102693.38
2022-10-19T05:21:51.784Z,102688.91
2022-10-19T05:24:19.963Z,102673.00
2022-10-19T05:26:48.259Z,102662.56
2022-10-19T05:29:16.555Z,102664.47
2022-10-19T05:31:44.858Z,102659.03
2022-10-19T05:34:13.092Z,102671.34
2022-10-19T05:36:42.710Z,102667.91
2022-10-19T05:39:15.472Z,102663.50
2022-10-19T05:41:45.198Z,102664.41
2022-10-19T05:44:17.401Z,102652.91
2022-10-19T05:46:46.476Z,102630.63
2022-10-19T05:49:15.216Z,102661.91
2022-10-19T05:51:45.237Z,102645.09
2022-10-19T05:54:15.038Z,102652.09
2022-10-19T05:56:44.807Z,102609.16
2022-10-19T05:59:18.746Z,102651.75
2022-10-19T06:01:47.779Z,102629.75
2022-10-19T06:06:47.169Z,102627.06
2022-10-19T06:09:15.402Z,102626.97
2022-10-19T06:11:44.168Z,102631.09
2022-10-19T06:14:15.722Z,102627.72
2022-10-19T06:16:46.006Z,102632.97
2022-10-19T06:19:14.862Z,102613.59
2022-10-19T06:21:46.540Z,102603.88
2022-10-19T06:24:14.996Z,102616.41
2022-10-19T06:26:43.335Z,102633.16
2022-10-19T06:29:12.017Z,102639.78
2022-10-19T06:31:40.367Z,102636.09
2022-10-19T06:34:08.798Z,102529.09
2022-10-19T06:36:37.219Z,102640.34
2022-10-19T06:39:06.929Z,102645.56
2022-10-19T06:41:35.329Z,102637.28
2022-10-19T06:44:19.770Z,102652.19
2022-10-19T06:46:48.185Z,102651.63
2022-10-19T06:49:16.489Z,102650.34
2022-10-19T06:51:44.850Z,102646.34
2022-10-19T06:54:14.790Z,102644.97
2022-10-19T06:56:43.167Z,102649.47
2022-10-19T06:59:14.777Z,102623.38
2022-10-19T07:01:43.397Z,102528.38
2022-10-19T07:04:11.671Z,102638.75
2022-10-19T07:06:40.120Z,102632.84
2022-10-19T07:09:08.462Z,102637.66
2022-10-19T07:11:41.292Z,102637.81
2022-10-19T07:14:14.012Z,102636.56
2022-10-19T07:16:42.432Z,102643.13
2022-10-19T07:19:11.695Z,102612.63
2022-10-19T07:21:41.679Z,102646.56
2022-10-19T07:24:10.455Z,102651.97
2022-10-19T07:26:40.094Z,102620.06
2022-10-19T07:29:08.507Z,102640.56
2022-10-19T07:31:36.888Z,102647.03
2022-10-19T07:34:06.696Z,102649.03
2022-10-19T07:36:36.961Z,102643.91
2022-10-19T07:39:08.256Z,102640.78
2022-10-19T07:41:36.582Z,102628.56
2022-10-19T07:44:06.958Z,102641.06
2022-10-19T07:46:37.242Z,102635.75
2022-10-19T07:49:09.621Z,102645.72
2022-10-19T07:51:38.443Z,102656.53
2022-10-19T07:54:07.021Z,102633.53
2022-10-19T07:56:35.569Z,102623.75
2022-10-19T07:59:05.831Z,102597.00
2022-10-19T08:01:37.063Z,102612.19
2022-10-19T08:06:54.015Z,102600.56
2022-10-19T08:09:50.784Z,102604.97
2022-10-19T08:12:14.878Z,102601.31
2022-10-19T08:14:45.255Z,102605.91
2022-10-19T08:17:16.786Z,102587.19
2022-10-19T08:19:45.406Z,102571.22
2022-10-19T08:22:13.803Z,102588.09
2022-10-19T08:24:42.112Z,102591.56
2022-10-19T08:27:10.488Z,102458.16
2022-10-19T08:29:38.832Z,102605.00
2022-10-19T08:32:08.947Z,102582.75
2022-10-19T08:34:39.960Z,102604.16
2022-10-19T08:37:19.761Z,102599.72
2022-10-19T08:39:56.686Z,102589.03
2022-10-19T08:42:30.588Z,102598.63
2022-10-19T08:45:20.273Z,102604.00
2022-10-19T08:48:00.632Z,102604.97
2022-10-19T08:50:35.542Z,102597.75
2022-10-19T08:53:07.625Z,102595.25
2022-10-19T08:55:53.240Z,102597.03
2022-10-19T08:58:36.560Z,102565.81
2022-10-19T09:01:15.380Z,102599.69
2022-10-19T09:03:55.422Z,102555.16
2022-10-19T09:06:30.948Z,102617.34
2022-10-19T09:08:59.908Z,102594.16
2022-10-19T09:11:36.508Z,102604.06
2022-10-19T09:14:14.443Z,102604.13
2022-10-19T09:16:43.915Z,102612.94
2022-10-19T09:19:25.909Z,102615.34
2022-10-19T09:21:59.106Z,102603.59
2022-10-19T09:24:38.741Z,102573.03
2022-10-19T09:27:14.794Z,102564.38
2022-10-19T09:29:49.519Z,102503.50
2022-10-19T09:32:23.262Z,102591.13
2022-10-19T09:34:55.632Z,102586.34
2022-10-19T09:37:26.827Z,102584.44
2022-10-19T09:39:56.228Z,102569.75
2022-10-19T09:42:30.565Z,102557.47
2022-10-19T09:45:01.659Z,102568.75
2022-10-19T09:47:38.605Z,102557.28
2022-10-19T09:50:16.637Z,102555.66
2022-10-19T09:52:46.875Z,102556.38
2022-10-19T09:55:31.052Z,102548.47
2022-10-19T09:58:06.435Z,102533.13
2022-10-19T10:00:42.269Z,102516.91
2022-10-19T10:03:29.462Z,102519.69
2022-10-19T10:06:03.563Z,102507.38
2022-10-19T10:08:34.893Z,102527.66
2022-10-19T10:11:11.573Z,102517.19
2022-10-19T10:13:42.668Z,102488.53
2022-10-19T10:16:15.277Z,102492.97
2022-10-19T10:18:55.315Z,102514.19
2022-10-19T10:21:27.626Z,102489.47
2022-10-19T10:24:06.778Z,102498.66
2022-10-19T10:26:41.621Z,102483.75
2022-10-19T10:29:22.129Z,102373.25
2022-10-19T10:31:54.336Z,102459.75
2022-10-19T10:34:45.961Z,102474.81
2022-10-19T10:37:24.200Z,102487.34
2022-10-19T10:39:55.826Z,102449.19
2022-10-19T10:42:32.354Z,102462.44
2022-10-19T10:45:02.000Z,102467.78
2022-10-19T10:47:32.230Z,102473.09
2022-10-19T10:50:05.887Z,102458.75
2022-10-19T10:52:37.160Z,102448.81
2022-10-19T10:55:18.963Z,102468.44
2022-10-19T10:57:52.818Z,102444.41
2022-10-19T11:00:24.100Z,102495.78
2022-10-19T11:02:59.618Z,102464.91
2022-10-19T11:05:31.846Z,102465.78
2022-10-19T11:08:08.669Z,102475.59
2022-10-19T11:10:43.642Z,102459.59
2022-10-19T11:13:17.839Z,102449.03
2022-10-19T11:15:54.383Z,102447.34
2022-10-19T11:18:26.987Z,102463.34
2022-10-19T11:21:06.213Z,102444.78
2022-10-19T11:23:55.392Z,102433.25
2022-10-19T11:26:44.246Z,102447.47
2022-10-19T11:29:31.978Z,102428.78
2022-10-19T11:32:00.825Z,102418.94
2022-10-19T11:34:50.745Z,102411.88
2022-10-19T11:37:29.979Z,102418.03
2022-10-19T11:40:13.999Z,102396.72
2022-10-19T11:42:55.208Z,102415.41
2022-10-19T11:45:39.201Z,102414.50
2022-10-19T11:48:40.349Z,102399.34
2022-10-19T11:51:23.289Z,102257.97
2022-10-19T11:54:21.178Z,102369.22
2022-10-19T11:57:03.988Z,102379.00
2022-10-19T11:59:57.602Z,102372.91
2022-10-19T12:03:11.180Z,102353.34
2022-10-19T12:05:55.013Z,102355.91
2022-10-19T12:08:38.844Z,102340.84
2022-10-19T12:11:31.746Z,102346.19
2022-10-19T12:14:06.386Z,102344.41
2022-10-19T12:16:40.909Z,102349.75
2022-10-19T12:19:18.742Z,102348.84
2022-10-19T12:21:47.861Z,102253.78
2022-10-19T12:24:20.758Z,102330.19
2022-10-19T12:26:52.114Z,102337.28
2022-10-19T12:29:25.997Z,102315.06
2022-10-19T12:31:56.643Z,102337.28
2022-10-19T12:34:33.705Z,102349.69
2022-10-19T12:37:09.833Z,102314.19
2022-10-19T12:39:50.364Z,102321.28
2022-10-19T12:42:26.968Z,102304.44
2022-10-19T12:45:19.775Z,102328.44
2022-10-19T12:48:24.468Z,102299.09
2022-10-19T12:51:14.042Z,102268.84
2022-10-19T12:53:47.795Z,102290.19
2022-10-19T12:56:22.051Z,102306.19
2022-10-19T12:58:55.538Z,102282.19
2022-10-19T13:01:29.599Z,102288.41
2022-10-19T13:04:13.761Z,102291.09
2022-10-19T13:06:46.280Z,102311.53
2022-10-19T13:09:26.147Z,102284.88
2022-10-19T13:12:31.109Z,102271.53
2022-10-19T13:15:00.835Z,102269.75
2022-10-19T13:17:46.380Z,102266.19
2022-10-19T13:20:51.745Z,102251.06
2022-10-19T13:23:42.021Z,102233.25
2022-10-19T13:26:32.843Z,102219.84
2022-10-19T13:29:01.919Z,102232.13
2022-10-19T13:31:33.070Z,102224.03
2022-10-19T13:34:11.069Z,102222.22
2022-10-19T13:36:40.290Z,102242.56
2022-10-19T13:39:16.570Z,102226.38
2022-10-19T13:41:53.544Z,102230.06
2022-10-19T13:44:26.863Z,102223.03
2022-10-19T13:47:39.046Z,102229.38
2022-10-19T13:50:37.688Z,102228.38
2022-10-19T13:53:21.323Z,102228.50
2022-10-19T13:56:28.425Z,102223.91
2022-10-19T13:59:41.826Z,102220.41
2022-10-19T14:03:05.436Z,102215.84
2022-10-19T14:06:14.666Z,102202.47
2022-10-19T14:09:20.435Z,102222.13
2022-10-19T14:11:51.639Z,102210.56
2022-10-19T14:14:24.351Z,102195.44
2022-10-19T14:16:59.654Z,102205.25
2022-10-19T14:19:34.754Z,102199.00
2022-10-19T14:22:21.819Z,102189.19
2022-10-19T14:24:50.188Z,102183.81
2022-10-19T14:27:24.472Z,102190.84
2022-10-19T14:29:55.259Z,102192.56
2022-10-19T14:32:27.176Z,102183.84
2022-10-19T14:35:00.782Z,102163.44
2022-10-19T14:37:30.577Z,102166.16
2022-10-19T14:40:08.189Z,102150.06
2022-10-19T14:42:45.941Z,102162.56
2022-10-19T14:45:21.148Z,102170.75
2022-10-19T14:47:54.612Z,102145.06
2022-10-19T14:50:28.267Z,102153.94
2022-10-19T14:53:04.788Z,102064.41
2022-10-19T14:55:39.293Z,102150.47
2022-10-19T14:58:14.123Z,102143.47
2022-10-19T15:00:43.103Z,102123.97
2022-10-19T15:03:17.820Z,102141.75
2022-10-19T15:05:50.846Z,102135.44
2022-10-19T15:08:27.876Z,102124.75
2022-10-19T15:10:56.269Z,102049.59
2022-10-19T15:13:27.883Z,101995.50
2022-10-19T15:15:56.832Z,102114.31
2022-10-19T15:18:47.526Z,102131.16
2022-10-19T15:21:19.867Z,102085.94
2022-10-19T15:23:53.137Z,102111.66
2022-10-19T15:26:26.081Z,102099.22
2022-10-19T15:28:55.904Z,102080.53
2022-10-19T15:31:27.968Z,102091.19
2022-10-19T15:34:00.040Z,102101.00
2022-10-19T15:36:31.110Z,102090.41
2022-10-19T15:39:18.263Z,102077.94
2022-10-19T15:41:54.441Z,102079.78
2022-10-19T15:44:42.223Z,102074.50
2022-10-19T15:47:24.255Z,102069.09
2022-10-19T15:50:03.500Z,102054.03
2022-10-19T15:52:35.170Z,102059.25
2022-10-19T15:55:05.270Z,102046.91
2022-10-19T15:57:36.049Z,102054.94
2022-10-19T16:00:13.631Z,102042.53
2022-10-19T16:02:41.978Z,102046.06
2022-10-19T16:05:11.437Z,102057.56
2022-10-19T16:07:41.899Z,101992.81
2022-10-19T16:10:18.174Z,102022.97
2022-10-19T16:12:46.738Z,102021.22
2022-10-19T16:15:17.416Z,102027.47
2022-10-19T16:17:46.263Z,102017.66
2022-10-19T16:20:14.879Z,102014.13
2022-10-19T16:22:43.603Z,102025.69
2022-10-19T16:25:14.288Z,101997.25
2022-10-19T16:27:42.971Z,101989.28
2022-10-19T16:30:13.257Z,102001.69
2022-10-19T16:35:15.135Z,101987.47
2022-10-19T16:37:43.387Z,101972.34
2022-10-19T16:40:13.437Z,101983.09
2022-10-19T16:42:41.724Z,101862.59
2022-10-19T16:45:11.878Z,101991.97
2022-10-19T16:47:40.247Z,101980.41
2022-10-19T16:50:09.464Z,101978.63
2022-10-19T16:52:38.204Z,101964.47
2022-10-19T16:55:08.475Z,101967.13
2022-10-19T16:57:38.520Z,101976.00
2022-10-19T17:00:10.087Z,101964.50
2022-10-19T17:02:41.917Z,101941.44
2022-10-19T17:05:12.799Z,101963.56
2022-10-19T17:07:41.133Z,101960.94
2022-10-19T17:10:10.604Z,101968.91
2022-10-19T17:12:42.365Z,101966.25
2022-10-19T17:18:01.363Z,101991.94
2022-10-19T17:20:29.712Z,101976.00
2022-10-19T17:22:57.995Z,101985.75
2022-10-19T17:25:26.660Z,101977.75
2022-10-19T17:27:56.388Z,101989.28
2022-10-19T17:30:24.711Z,101985.75
2022-10-19T17:32:53.060Z,101968.88
2022-10-19T17:35:21.431Z,101976.00
2022-10-19T17:37:49.775Z,101948.50
2022-10-19T17:40:18.265Z,101970.66
2022-10-19T17:42:46.525Z,101946.75
2022-10-19T17:45:16.480Z,101976.00
2022-10-19T17:47:44.818Z,101984.00
2022-10-19T17:50:13.180Z,101972.47
2022-10-19T17:52:41.754Z,101986.63
2022-10-19T17:55:12.584Z,101972.44
2022-10-19T17:57:41.616Z,101970.69
2022-10-19T18:00:11.057Z,101976.84
2022-10-19T18:02:46.763Z,101979.50
2022-10-19T18:05:15.283Z,101862.50
2022-10-19T18:07:45.721Z,101920.16
2022-10-19T18:10:15.480Z,101944.06
2022-10-19T18:12:43.737Z,101944.09
2022-10-19T18:15:12.170Z,101949.34
2022-10-19T18:17:40.524Z,101952.91
2022-10-19T18:20:12.322Z,101942.28
2022-10-19T18:22:40.671Z,101942.28
2022-10-19T18:25:09.975Z,101932.50
2022-10-19T18:27:38.472Z,101897.09
2022-10-19T18:30:09.226Z,101908.59
2022-10-19T18:32:37.812Z,101911.25
2022-10-19T18:35:07.185Z,101917.44
2022-10-19T18:37:37.119Z,101921.78
2022-10-19T18:40:06.258Z,101904.09
2022-10-19T18:42:35.237Z,101881.03
2022-10-19T18:45:03.813Z,101916.50
2022-10-19T18:47:32.277Z,101900.59
2022-10-19T18:50:00.706Z,101873.16
2022-10-19T18:52:29.092Z,101907.63
2022-10-19T18:54:58.999Z,101881.97
2022-10-19T18:57:31.616Z,101838.53
2022-10-19T19:00:00.414Z,101865.16
2022-10-19T19:02:42.250Z,101859.81
2022-10-19T19:05:14.519Z,101858.97
2022-10-19T19:07:42.837Z,101863.34
2022-10-19T19:10:13.050Z,101865.06
2022-10-19T19:12:42.027Z,101826.06
2022-10-19T19:15:10.970Z,101858.91
2022-10-19T19:17:40.066Z,101848.19
2022-10-19T19:20:09.651Z,101834.00
2022-10-19T19:22:38.376Z,101837.59
2022-10-19T19:25:07.847Z,101819.78
2022-10-19T19:30:08.693Z,101825.13
2022-10-19T19:32:37.343Z,101818.88
2022-10-19T19:35:06.731Z,101825.94
2022-10-19T19:37:37.433Z,101820.75
2022-10-19T19:40:07.212Z,101815.41
2022-10-19T19:42:37.255Z,101821.50
2022-10-19T19:45:06.847Z,101813.50
2022-10-19T19:47:35.273Z,101811.81
2022-10-19T19:50:03.868Z,101802.03
2022-10-19T19:52:34.044Z,101818.88
2022-10-19T19:55:06.177Z,101791.41
2022-10-19T19:57:34.825Z,101814.38
2022-10-19T20:00:05.927Z,101789.53
2022-10-19T20:02:39.839Z,101794.06
2022-10-19T20:05:09.092Z,101794.06
2022-10-19T20:07:37.733Z,101790.59
2022-10-19T20:10:07.279Z,101792.25
2022-10-19T20:12:35.604Z,101801.22
2022-10-19T20:15:06.254Z,101797.63
2022-10-19T20:17:35.052Z,101728.47
2022-10-19T20:20:03.653Z,101803.84
2022-10-19T20:22:32.016Z,101792.25
2022-10-19T20:25:00.463Z,101794.91
2022-10-19T20:27:29.036Z,101783.34
2022-10-19T20:29:58.713Z,101793.97
2022-10-19T20:32:30.237Z,101759.34
2022-10-19T20:34:58.628Z,101762.94
2022-10-19T20:37:27.138Z,101724.84
2022-10-19T20:39:55.603Z,101760.25
2022-10-19T20:42:24.002Z,101769.13
2022-10-19T20:44:54.653Z,101762.88
2022-10-19T20:47:22.841Z,101733.66
2022-10-19T20:49:52.660Z,101745.22
2022-10-19T20:52:21.166Z,101718.63
2022-10-19T20:54:49.924Z,101737.31
2022-10-19T20:57:18.299Z,101734.66
2022-10-19T20:59:46.701Z,101735.63
2022-10-19T21:02:15.123Z,101738.28
2022-10-19T21:04:43.475Z,101743.44
2022-10-19T21:07:13.208Z,101753.97
2022-10-19T21:09:41.662Z,101752.19
2022-10-19T21:12:10.078Z,101638.84
2022-10-19T21:14:38.616Z,101737.25
2022-10-19T21:17:06.962Z,101729.25
2022-10-19T21:19:35.308Z,101732.81
2022-10-19T21:22:06.216Z,101719.59
2022-10-19T21:24:37.780Z,101622.91
2022-10-19T21:27:09.504Z,101725.63
2022-10-19T21:29:38.815Z,101710.63
2022-10-19T21:32:07.155Z,101710.59
2022-10-19T21:34:35.701Z,101724.72
2022-10-19T21:37:04.079Z,101708.81
2022-10-19T21:39:32.458Z,101693.81
2022-10-19T21:42:02.640Z,101701.84
2022-10-19T21:44:30.967Z,101708.88
2022-10-19T21:46:59.246Z,101699.16
2022-10-19T21:49:27.611Z,101693.88
2022-10-19T21:51:56.193Z,101651.47
2022-10-19T21:54:26.347Z,101685.94
2022-10-19T21:56:55.903Z,101656.75
2022-10-19T21:59:26.743Z,101656.84
2022-10-19T22:01:56.463Z,101657.81
2022-10-19T22:04:25.043Z,101647.19
2022-10-19T22:06:53.351Z,101652.47
2022-10-19T22:09:24.724Z,101643.56
2022-10-19T22:11:53.177Z,101634.78
2022-10-19T22:14:21.581Z,101649.72
2022-10-19T22:16:51.262Z,101651.44
2022-10-19T22:19:19.644Z,101640.75
2022-10-19T22:21:47.906Z,101522.16
2022-10-19T22:24:17.144Z,101649.59
2022-10-19T22:26:50.719Z,101652.28
2022-10-19T22:29:20.054Z,101538.97
2022-10-19T22:31:48.410Z,101648.75
2022-10-19T22:34:19.387Z,101643.41
2022-10-19T22:36:47.996Z,101633.72
2022-10-19T22:39:16.840Z,101625.81
2022-10-19T22:43:00.632Z,101616.94
2022-10-19T22:45:48.890Z,101612.50
2022-10-19T22:48:18.150Z,101609.88
2022-10-19T22:50:48.390Z,101554.13
2022-10-19T22:53:16.800Z,101590.47
2022-10-19T22:55:45.230Z,101597.50
2022-10-19T22:58:13.663Z,101601.88
2022-10-19T23:00:42.049Z,101600.09
2022-10-19T23:03:10.429Z,101598.31
2022-10-19T23:05:38.724Z,101575.41
2022-10-19T23:08:08.575Z,101600.16
2022-10-19T23:10:36.883Z,101596.63
2022-10-19T23:13:05.401Z,101582.44
2022-10-19T23:15:33.781Z,101581.59
2022-10-19T23:18:02.124Z,101586.88
2022-10-19T23:20:30.486Z,101569.25
2022-10-19T23:22:58.868Z,101560.41
2022-10-19T23:25:28.677Z,101578.91
2022-10-19T23:27:57.029Z,101581.56
2022-10-19T23:30:25.394Z,101544.50
2022-10-19T23:32:53.786Z,101567.50
2022-10-19T23:35:22.129Z,101543.59
2022-10-19T23:37:50.390Z,101561.31
2022-10-19T23:40:18.806Z,101566.59
2022-10-19T23:42:48.399Z,101556.91
2022-10-19T23:45:16.787Z,101541.88
2022-10-19T23:47:45.040Z,101548.03
2022-10-19T23:50:13.347Z,101539.19
2022-10-19T23:52:41.790Z,101533.97
2022-10-19T23:55:10.882Z,101510.03
2022-10-19T23:57:39.275Z,101531.25
